Sulphur, Nevada
Current Conditions -  °F | °C
As of 5:56 PM on Sunday 21 Dec 2014 (Local Time) from KWMC Reporting Station
Overcast Overcast  
Wind Chill: 52°   Ceiling: 4200
Heat Index: 52°   Visibility: 10mi
Dew Point: 42°   Wind: 8mph
Humidity: 69%   Direction: 230°SW
Pressure: 30.15"   Gusts: NA
Location:  41.1353°N, 118.186°W
Report Text: KWMC 220156Z AUTO 23007KT 10SM OVC042 11/06 A3015 RMK AO2 SLP196 T01110056
Loading
Personal Weather Stations






























Interactive Weather Map New forecast layout! Learn more

10-Day Weather Forecast

Advertisements
Track Severe Weather on mobile